Springboro, Ohio
Current Conditions -  °F | °C
As of 2:53 PM on Friday 19 Dec 2014 (Local Time) from KMGY Reporting Station
Overcast Overcast  
Wind Chill: 31°   Ceiling: 2400
Heat Index: 31°   Visibility: 10mi
Dew Point: 22°   Wind: 0mph
Humidity: 69%   Direction: NA
Pressure: 30.24"   Gusts: NA
Location:  39.56°N, 84.23°W
Report Text: KMGY 191953Z AUTO 00000KT 10SM OVC024 M01/M06 A3024 RMK AO2 SLP251 T10061056
Loading
Personal Weather Stations






























Interactive Weather Map New forecast layout! Learn more

10-Day Weather Forecast

Advertisements
Track Severe Weather on mobile